Time;durP1;ratioP1;P1;durP2;ratioP2;P2;SDS_P1;SDS_P2;PMS_P1;PMS_P2;Temp;Humidity;BMP_temperature;BMP_pressure;BME280_temperature;BME280_humidity;BME280_pressure;Samples;Min_cycle;Max_cycle;Signal;HPM_P1;HPM_P2
2021/01/18 00:01:06;;;;;;;0.43;0.43;;;3.00;97.10;;;7.50;77.20;102281.25;5019013;28;98138;-74
2021/01/18 00:03:34;;;;;;;0.13;0.13;;;3.00;97.10;;;7.52;77.02;102281.81;5017610;28;97706;-74
2021/01/18 00:06:04;;;;;;;2.50;0.55;;;3.00;97.10;;;7.52;76.30;102283.69;5017741;28;97300;-74
2021/01/18 00:08:31;;;;;;;3.10;1.35;;;3.00;97.10;;;7.51;76.09;102272.19;5011285;28;97396;-74
2021/01/18 00:10:59;;;;;;;0.77;0.68;;;3.00;97.10;;;7.47;76.73;102276.41;5023940;28;98093;-74
2021/01/18 00:13:30;;;;;;;0.88;0.63;;;3.00;97.10;;;7.48;75.96;102271.88;5014872;28;96709;-74
2021/01/18 00:15:59;;;;;;;0.75;0.75;;;3.00;97.10;;;7.56;76.00;102274.94;5014703;28;96671;-74
2021/01/18 00:18:31;;;;;;;4.43;1.17;;;3.00;97.10;;;7.58;76.44;102275.50;5013948;28;97840;-74
2021/01/18 00:21:00;;;;;;;2.75;0.82;;;3.00;97.10;;;7.53;76.02;102269.31;5021518;28;97259;-74
2021/01/18 00:23:31;;;;;;;0.10;0.10;;;3.00;97.10;;;7.58;76.12;102269.38;5004448;28;97752;-74
2021/01/18 00:26:13;;;;;;;1.33;1.23;;;3.00;97.10;;;7.36;76.48;102268.50;5019975;28;96814;-74
2021/01/18 00:28:42;;;;;;;0.20;0.20;;;3.00;97.10;;;7.44;76.82;102268.91;5014138;28;97128;-74
2021/01/18 00:31:11;;;;;;;6.60;1.05;;;3.00;97.10;;;7.52;75.93;102265.03;5012625;28;96726;-74
2021/01/18 00:33:39;;;;;;;5.18;1.48;;;2.90;97.00;;;7.50;75.67;102262.59;5018678;28;97666;-74
2021/01/18 00:36:07;;;;;;;0.43;0.43;;;2.90;97.00;;;7.37;75.80;102254.94;5012019;28;96587;-74
2021/01/18 00:38:36;;;;;;;4.32;0.52;;;2.90;97.00;;;7.23;76.00;102258.16;5014823;27;96913;-74
2021/01/18 00:41:04;;;;;;;0.68;0.68;;;2.90;97.00;;;7.15;75.42;102247.88;5017022;27;98114;-74
2021/01/18 00:43:32;;;;;;;19.55;1.33;;;2.80;96.90;;;7.06;76.01;102249.34;5016911;28;97643;-74
2021/01/18 00:46:00;;;;;;;0.50;0.32;;;2.70;96.90;;;6.96;75.86;102251.84;5017308;28;97238;-74
2021/01/18 00:48:32;;;;;;;1.98;0.47;;;2.70;96.80;;;6.96;76.23;102257.19;5015429;28;97201;-74
2021/01/18 00:51:02;;;;;;;0.98;0.30;;;2.70;96.80;;;7.02;76.26;102250.88;5017846;28;97073;-74
2021/01/18 00:53:30;;;;;;;0.32;0.32;;;2.60;96.80;;;7.11;76.20;102258.25;5001729;28;98579;-74
2021/01/18 00:55:59;;;;;;;3.10;1.67;;;2.60;96.80;;;7.04;76.03;102254.09;5014857;28;96721;-74
2021/01/18 00:58:49;;;;;;;4.13;1.58;;;2.60;96.90;;;7.10;76.52;102245.13;5014718;28;96799;-74
2021/01/18 01:01:37;;;;;;;5.20;1.05;;;2.60;96.90;;;7.09;76.61;102254.19;5017905;28;98475;-74
2021/01/18 01:04:07;;;;;;;0.10;0.10;;;2.70;97.00;;;7.09;77.37;102249.69;5021856;28;97046;-74
2021/01/18 01:06:35;;;;;;;6.75;1.23;;;2.60;96.90;;;7.21;76.37;102252.28;5007811;28;97106;-74
2021/01/18 01:09:05;;;;;;;3.67;1.65;;;2.70;97.00;;;7.25;76.75;102253.41;5016402;28;96918;-74
2021/01/18 01:11:33;;;;;;;0.10;0.10;;;2.70;97.00;;;7.24;76.61;102251.78;5018077;28;99137;-74
2021/01/18 01:14:02;;;;;;;0.20;0.20;;;2.70;97.00;;;7.29;76.92;102251.84;5028273;28;99939;-74
2021/01/18 01:16:31;;;;;;;0.65;0.50;;;2.80;97.10;;;7.25;76.25;102251.53;5024640;28;96838;-74
2021/01/18 01:18:58;;;;;;;1.08;1.02;;;2.80;97.10;;;7.22;76.60;102244.00;5016201;28;97139;-74
2021/01/18 01:21:27;;;;;;;0.15;0.15;;;2.80;97.10;;;7.18;76.59;102239.41;5015394;27;98794;-74
2021/01/18 01:23:54;;;;;;;0.15;0.15;;;2.80;97.10;;;7.05;76.39;102237.06;5032862;27;97284;-74
2021/01/18 01:26:23;;;;;;;2.00;0.88;;;2.80;97.10;;;6.96;76.65;102238.53;5016146;28;97351;-74
2021/01/18 01:28:50;;;;;;;0.15;0.15;;;2.70;97.10;;;6.90;76.17;102244.78;5018239;27;97193;-74
2021/01/18 01:31:18;;;;;;;2.75;1.52;;;2.70;97.00;;;6.98;76.45;102241.75;5015490;28;97849;-74
2021/01/18 01:33:47;;;;;;;1.65;0.95;;;2.70;97.00;;;7.03;76.66;102239.97;5015305;28;97952;-74
2021/01/18 01:36:14;;;;;;;0.52;0.52;;;2.60;97.30;;;7.06;75.95;102239.50;5015825;27;97177;-74
2021/01/18 01:38:43;;;;;;;3.42;0.57;;;2.60;97.00;;;7.10;75.72;102237.97;5014932;28;97325;-74
2021/01/18 01:41:10;;;;;;;0.35;0.35;;;2.60;97.00;;;6.99;76.18;102235.38;5016692;28;97062;-74
2021/01/18 01:43:38;;;;;;;4.15;1.65;;;2.60;97.00;;;6.89;76.21;102227.19;5015499;28;97762;-74
2021/01/18 01:46:08;;;;;;;0.35;0.35;;;2.50;96.90;;;6.89;75.84;102230.69;5012864;27;97192;-74
2021/01/18 01:48:36;;;;;;;0.25;0.25;;;2.50;96.90;;;6.89;75.34;102232.53;5012738;28;96977;-74
2021/01/18 01:51:06;;;;;;;16.27;0.98;;;2.50;96.90;;;6.90;76.09;102237.63;5023976;28;97278;-74
2021/01/18 01:53:35;;;;;;;0.40;0.40;;;2.50;96.90;;;6.95;76.17;102239.56;5013555;28;97698;-74
2021/01/18 01:56:05;;;;;;;0.98;0.95;;;2.40;96.90;;;6.97;75.85;102245.47;5016794;28;97289;-74
2021/01/18 01:58:33;;;;;;;0.65;0.65;;;2.50;97.00;;;7.00;76.74;102250.31;5015452;28;96958;-73
2021/01/18 02:01:04;;;;;;;0.10;0.10;;;2.50;97.00;;;7.12;75.57;102245.69;5012526;28;98855;-74
2021/01/18 02:03:41;;;;;;;0.25;0.25;;;2.50;97.00;;;7.12;76.00;102243.03;5015168;28;100005;-74
2021/01/18 02:06:10;;;;;;;2.47;1.65;;;2.50;97.00;;;7.08;76.04;102233.91;5031659;27;96737;-74
2021/01/18 02:08:38;;;;;;;0.50;0.50;;;2.60;97.10;;;7.05;75.60;102229.06;5014413;28;96969;-74
2021/01/18 02:11:07;;;;;;;11.13;2.25;;;2.50;97.10;;;7.04;75.54;102238.13;5015446;27;96972;-74
2021/01/18 02:14:04;;;;;;;9.75;0.93;;;2.50;97.00;;;6.84;75.00;102235.94;5016387;28;97660;-74
2021/01/18 02:16:45;;;;;;;0.73;0.73;;;2.50;97.00;;;6.84;75.17;102243.09;5013925;28;96825;-74
2021/01/18 02:20:15;;;;;;;0.52;0.52;;;2.40;96.90;;;6.74;75.07;102232.28;5015545;28;98220;-74
2021/01/18 02:23:37;;;;;;;0.88;0.88;;;2.40;96.90;;;6.65;75.25;102241.72;5013860;28;97853;-74
2021/01/18 02:26:13;;;;;;;1.65;1.23;;;2.30;96.80;;;6.56;75.43;102246.59;5001837;28;98157;-74
2021/01/18 02:29:12;;;;;;;1.92;1.77;;;2.20;96.70;;;6.55;75.89;102236.19;5015312;27;96671;-74
2021/01/18 02:32:23;;;;;;;14.32;3.20;;;2.20;96.70;;;6.59;75.26;102242.63;5014865;27;96939;-74
2021/01/18 02:36:04;;;;;;;1.35;1.23;;;2.20;96.70;;;6.58;75.55;102246.34;5016108;28;97871;-74
2021/01/18 02:38:43;;;;;;;2.13;1.65;;;2.10;96.70;;;6.56;75.79;102237.78;4933555;28;97791;-74
2021/01/18 02:41:23;;;;;;;1.45;1.30;;;2.10;96.70;;;6.63;75.22;102235.81;4940313;28;97295;-74
2021/01/18 02:44:00;;;;;;;1.20;0.70;;;2.10;96.80;;;6.56;75.07;102243.13;5004237;28;97132;-74
2021/01/18 02:46:34;;;;;;;1.77;1.23;;;2.10;96.80;;;6.57;75.48;102234.09;5016826;28;99554;-74
2021/01/18 02:49:06;;;;;;;24.08;2.53;;;2.10;96.70;;;6.53;74.88;102232.94;5017091;28;97244;-74
2021/01/18 02:51:42;;;;;;;0.82;0.68;;;2.10;96.70;;;6.49;74.95;102232.63;5019516;28;97297;-74
2021/01/18 02:54:10;;;;;;;1.95;1.63;;;2.00;96.70;;;6.41;75.78;102233.00;5016801;28;97198;-74
2021/01/18 02:56:50;;;;;;;1.25;1.15;;;2.00;96.70;;;6.40;75.03;102233.25;5013779;28;98505;-74
2021/01/18 02:59:19;;;;;;;1.23;1.05;;;2.00;96.70;;;6.35;75.43;102219.84;5016227;27;97749;-74
2021/01/18 03:02:26;;;;;;;0.70;0.63;;;1.90;96.70;;;6.34;75.49;102223.56;5016159;28;97852;-74
2021/01/18 03:05:25;;;;;;;1.05;1.05;;;1.90;96.70;;;6.31;75.08;102216.84;5015090;28;96931;-74
2021/01/18 03:08:16;;;;;;;1.13;1.13;;;1.90;96.70;;;6.30;75.52;102222.38;5018222;28;97503;-73
2021/01/18 03:10:56;;;;;;;5.80;1.13;;;1.80;96.60;;;6.32;75.17;102220.31;5016096;28;97628;-73
2021/01/18 03:13:33;;;;;;;5.10;1.15;;;1.80;96.70;;;6.32;74.77;102215.00;5024021;28;96804;-73
2021/01/18 03:16:13;;;;;;;0.13;0.13;;;1.80;96.70;;;6.31;75.65;102221.38;5013825;28;97422;-73
2021/01/18 03:18:44;;;;;;;1.00;1.00;;;1.80;96.70;;;6.29;75.01;102215.44;5010817;28;96885;-73
2021/01/18 03:21:13;;;;;;;1.02;0.60;;;1.80;96.70;;;6.21;75.30;102207.84;5014183;28;98538;-73
2021/01/18 03:23:43;;;;;;;0.52;0.52;;;1.80;96.70;;;6.17;76.45;102208.56;5016255;27;96712;-73
2021/01/18 03:26:12;;;;;;;3.95;0.60;;;1.80;96.70;;;6.18;75.36;102211.81;5012763;28;97055;-73
2021/01/18 03:28:41;;;;;;;1.67;1.58;;;1.80;96.80;;;6.16;76.15;102209.63;5019230;27;97845;-73
2021/01/18 03:31:08;;;;;;;0.77;0.77;;;1.80;96.80;;;6.13;75.84;102210.88;5013280;28;97669;-73
2021/01/18 03:33:36;;;;;;;0.28;0.28;;;1.70;96.80;;;6.07;76.78;102205.69;5022517;28;96819;-73
2021/01/18 03:36:06;;;;;;;1.52;0.98;;;1.70;96.70;;;6.06;76.41;102214.72;5013064;28;96949;-73
2021/01/18 03:38:34;;;;;;;0.43;0.43;;;1.80;96.80;;;6.08;76.33;102218.78;5012103;28;96863;-73
2021/01/18 03:41:04;;;;;;;0.82;0.47;;;1.70;96.80;;;6.09;77.01;102214.25;5013951;28;98675;-73
2021/01/18 03:43:31;;;;;;;0.13;0.13;;;1.70;96.80;;;6.02;76.25;102219.72;5007672;28;96821;-73
2021/01/18 03:45:59;;;;;;;3.63;1.70;;;1.70;96.80;;;5.96;76.76;102227.81;5012445;28;97182;-73
2021/01/18 03:48:30;;;;;;;1.00;0.98;;;1.70;96.80;;;5.88;76.47;102223.66;5015830;28;97760;-73
2021/01/18 03:50:58;;;;;;;14.20;0.93;;;1.70;96.80;;;5.91;76.87;102225.06;5011108;28;98367;-73
2021/01/18 03:53:26;;;;;;;5.50;1.77;;;1.70;96.80;;;5.90;76.83;102226.09;5017642;28;97254;-73
2021/01/18 03:55:54;;;;;;;1.50;1.33;;;1.70;96.80;;;5.86;77.03;102227.63;5020724;28;96947;-73
2021/01/18 03:58:23;;;;;;;2.90;0.93;;;1.70;96.80;;;5.83;76.75;102225.41;5015653;27;98422;-73
2021/01/18 04:00:51;;;;;;;0.40;0.40;;;1.70;96.80;;;5.81;76.29;102227.50;5016988;28;98895;-73
2021/01/18 04:03:19;;;;;;;2.28;1.42;;;1.70;96.80;;;5.81;76.50;102230.16;5012909;27;96661;-72
2021/01/18 04:05:47;;;;;;;3.05;0.85;;;1.70;96.80;;;5.75;77.17;102231.88;5014570;28;97333;-73
2021/01/18 04:08:15;;;;;;;2.20;1.85;;;1.60;96.70;;;5.78;77.28;102236.75;5023956;28;97876;-73
2021/01/18 04:10:43;;;;;;;2.72;1.05;;;1.60;96.80;;;5.82;77.96;102229.94;5024719;28;97545;-72
2021/01/18 04:13:10;;;;;;;4.45;1.77;;;1.70;96.80;;;5.90;77.72;102228.78;5020167;28;97240;-73
2021/01/18 04:15:39;;;;;;;6.85;0.95;;;1.70;96.80;;;5.96;77.56;102227.81;5018486;28;96839;-73
2021/01/18 04:18:07;;;;;;;0.43;0.43;;;1.70;96.80;;;6.01;77.65;102226.09;5018231;28;98095;-73
2021/01/18 04:20:35;;;;;;;0.20;0.20;;;1.70;96.90;;;5.92;77.08;102219.50;5014154;28;98702;-73
2021/01/18 04:23:04;;;;;;;1.17;1.08;;;1.70;96.90;;;5.85;76.75;102216.16;5021159;28;97219;-73
2021/01/18 04:25:33;;;;;;;0.32;0.25;;;1.70;96.90;;;5.91;77.10;102220.53;5018025;28;97381;-73
2021/01/18 04:28:04;;;;;;;8.27;1.40;;;1.70;96.90;;;5.90;76.77;102218.91;5018534;28;97761;-73
2021/01/18 04:30:36;;;;;;;0.10;0.10;;;1.70;96.90;;;5.88;76.93;102221.00;5025557;28;97662;-73
2021/01/18 04:33:09;;;;;;;0.35;0.30;;;1.70;96.90;;;5.86;77.38;102214.31;4988748;28;96777;-73
2021/01/18 04:35:39;;;;;;;;;;;1.70;96.90;;;5.90;77.24;102210.16;5024375;28;98450;-73
2021/01/18 04:38:07;;;;;;;9.73;3.90;;;1.70;96.90;;;5.93;77.70;102218.44;5012455;27;97757;-73
2021/01/18 04:40:36;;;;;;;0.17;0.17;;;1.70;96.90;;;6.00;77.55;102221.78;5017078;28;98091;-73
2021/01/18 04:43:05;;;;;;;1.27;0.88;;;1.70;96.90;;;6.01;76.99;102207.47;5024813;28;96922;-73
2021/01/18 04:45:33;;;;;;;2.47;1.42;;;1.70;96.90;;;5.97;77.42;102214.28;5016261;28;97163;-73
2021/01/18 04:48:02;;;;;;;0.80;0.75;;;1.70;96.90;;;5.93;77.19;102210.47;5018384;27;97853;-73
2021/01/18 04:50:32;;;;;;;3.20;0.73;;;1.70;96.90;;;5.95;76.63;102207.59;5014726;28;97680;-73
2021/01/18 04:53:14;;;;;;;0.82;0.82;;;1.70;96.90;;;5.92;76.88;102208.84;5019588;28;97533;-73
2021/01/18 04:56:07;;;;;;;0.47;0.47;;;1.70;96.90;;;5.96;76.33;102196.69;5016595;28;97275;-73
2021/01/18 04:58:38;;;;;;;;;;;1.70;96.90;;;6.00;76.48;102205.03;5020111;28;98423;-73
2021/01/18 05:01:06;;;;;;;0.93;0.93;;;1.70;96.90;;;5.90;77.18;102204.84;5015146;27;97674;-73
2021/01/18 05:03:36;;;;;;;4.93;2.92;;;1.70;96.90;;;5.92;76.69;102203.53;5015952;27;97501;-73
2021/01/18 05:06:45;;;;;;;23.20;1.00;;;1.70;96.90;;;5.89;76.68;102197.91;5017833;27;96900;-73
2021/01/18 05:09:50;;;;;;;0.28;0.28;;;1.70;96.90;;;5.80;77.24;102200.09;5020296;28;98051;-72
2021/01/18 05:12:18;;;;;;;0.60;0.60;;;1.60;96.80;;;5.80;76.86;102196.63;5013540;28;97744;-72
2021/01/18 05:14:46;;;;;;;1.27;1.17;;;1.60;96.80;;;5.84;76.32;102200.44;5014617;28;96798;-72
2021/01/18 05:17:43;;;;;;;0.60;0.60;;;1.60;96.80;;;5.82;76.29;102202.50;5017317;28;96853;-73
2021/01/18 05:20:14;;;;;;;1.50;1.38;;;1.60;96.90;;;5.79;76.92;102197.66;5029607;27;97842;-73
2021/01/18 05:22:47;;;;;;;1.38;1.27;;;1.60;96.80;;;5.76;77.23;102192.78;5018377;28;97687;-72
2021/01/18 05:25:17;;;;;;;1.60;0.95;;;1.60;96.80;;;5.78;76.97;102185.38;5027289;28;97204;-72
2021/01/18 05:28:04;;;;;;;3.63;2.63;;;1.60;96.90;;;5.86;76.81;102187.72;5021813;28;96895;-74
2021/01/18 05:30:38;;;;;;;0.63;0.63;;;1.60;96.90;;;5.90;76.40;102189.66;5012067;28;97970;-74
2021/01/18 05:33:09;;;;;;;0.50;0.45;;;1.60;96.80;;;5.85;76.65;102191.41;5024012;28;96852;-74
2021/01/18 05:35:41;;;;;;;2.85;2.00;;;1.60;96.90;;;5.84;76.78;102185.28;5014356;27;96835;-74
2021/01/18 05:38:12;;;;;;;7.38;2.33;;;1.60;96.90;;;5.84;76.80;102187.94;5017488;28;97514;-74
2021/01/18 05:40:45;;;;;;;1.73;1.63;;;1.50;96.80;;;5.86;76.45;102188.53;5012355;28;97162;-74
2021/01/18 05:43:14;;;;;;;1.38;0.75;;;1.60;96.90;;;5.91;76.85;102185.16;5019223;28;97676;-74
2021/01/18 05:45:45;;;;;;;1.17;1.15;;;1.60;96.90;;;5.92;76.82;102187.56;5030446;27;96799;-74
2021/01/18 05:48:25;;;;;;;8.68;2.60;;;1.60;96.90;;;6.07;76.26;102179.09;5023423;28;97417;-74
2021/01/18 05:50:57;;;;;;;6.65;3.47;;;1.60;96.90;;;6.12;76.22;102184.50;5007006;28;99471;-74
2021/01/18 05:53:27;;;;;;;1.33;0.98;;;1.60;97.00;;;6.10;77.21;102186.59;5007620;28;97917;-74
2021/01/18 05:56:18;;;;;;;1.90;1.23;;;1.60;97.00;;;6.17;76.55;102177.44;5012850;28;97341;-73
2021/01/18 05:58:47;;;;;;;4.53;1.00;;;1.70;97.10;;;6.18;77.38;102177.22;5016781;28;97345;-73
2021/01/18 06:01:38;;;;;;;1.13;1.02;;;1.70;97.10;;;6.18;76.91;102179.06;5025078;28;97367;-73
2021/01/18 06:04:11;;;;;;;2.17;1.00;;;1.80;97.10;;;6.18;77.07;102176.38;5017789;28;97661;-72
2021/01/18 06:06:42;;;;;;;1.65;1.50;;;1.80;97.10;;;6.20;77.61;102180.44;5016055;28;97519;-73
2021/01/18 06:09:10;;;;;;;1.65;1.52;;;1.80;97.10;;;6.28;77.57;102180.06;5016893;28;96897;-73
2021/01/18 06:11:38;;;;;;;2.00;1.85;;;1.80;97.10;;;6.30;76.91;102171.81;4988212;28;98993;-73
2021/01/18 06:14:06;;;;;;;1.98;1.60;;;1.90;97.10;;;6.28;77.59;102173.91;5014956;27;97715;-73
2021/01/18 06:16:36;;;;;;;0.68;0.68;;;1.90;97.10;;;6.28;76.93;102173.91;5014644;27;97275;-73
2021/01/18 06:19:08;;;;;;;1.42;1.33;;;1.90;97.10;;;6.30;76.97;102171.81;5015655;28;96933;-72
2021/01/18 06:21:55;;;;;;;5.40;1.30;;;1.90;97.10;;;6.24;76.89;102170.94;5015422;28;97993;-73
2021/01/18 06:24:28;;;;;;;3.40;2.05;;;1.90;97.10;;;6.27;77.34;102174.97;5010855;28;97741;-73
2021/01/18 06:26:56;;;;;;;14.63;1.73;;;2.00;97.10;;;6.29;77.20;102168.38;5013708;27;96699;-72
2021/01/18 06:29:39;;;;;;;1.60;1.50;;;2.00;97.10;;;6.32;76.69;102170.53;5013520;28;97382;-72
2021/01/18 06:32:30;;;;;;;1.27;1.17;;;2.00;97.10;;;6.35;76.72;102163.94;5012837;28;98646;-72
2021/01/18 06:35:02;;;;;;;3.40;2.10;;;2.00;97.10;;;6.30;77.33;102154.00;5017063;28;97723;-73
2021/01/18 06:37:34;;;;;;;1.67;1.55;;;2.00;97.10;;;6.28;77.12;102155.28;5011378;28;97279;-73
2021/01/18 06:40:11;;;;;;;2.58;2.10;;;2.00;97.10;;;6.29;76.79;102163.03;5019256;27;97278;-73
2021/01/18 06:42:55;;;;;;;1.60;0.98;;;2.00;97.10;;;6.27;77.18;102157.16;5019543;28;97196;-73
2021/01/18 06:45:37;;;;;;;3.70;2.92;;;2.00;97.10;;;6.31;77.55;102160.94;5015378;28;97677;-72
2021/01/18 06:48:17;;;;;;;0.98;0.98;;;2.00;97.10;;;6.32;77.59;102161.78;5016264;28;97552;-73
2021/01/18 06:50:48;;;;;;;0.77;0.77;;;2.10;97.10;;;6.37;77.65;102157.31;5012264;28;96689;-73
2021/01/18 06:53:23;;;;;;;12.85;2.05;;;2.10;97.10;;;6.42;77.27;102156.63;5022946;28;98015;-73
2021/01/18 06:57:13;;;;;;;2.13;1.98;;;2.10;97.10;;;6.44;77.23;102162.50;5017338;28;100223;-73
2021/01/18 06:59:52;;;;;;;1.13;1.03;;;2.10;97.10;;;6.41;78.13;102161.13;4980356;28;96908;-73
2021/01/18 07:02:39;;;;;;;4.85;2.00;;;2.10;97.10;;;6.43;77.76;102160.91;4985382;28;97024;-74
2021/01/18 07:05:11;;;;;;;2.03;1.30;;;2.10;97.10;;;6.44;77.14;102162.50;5008250;27;97893;-73
2021/01/18 07:07:40;;;;;;;3.87;2.37;;;2.10;97.10;;;6.45;77.66;102166.78;5013109;28;98551;-73
2021/01/18 07:10:22;;;;;;;2.58;2.33;;;2.20;97.20;;;6.44;77.22;102159.84;5014852;28;96745;-73
2021/01/18 07:12:54;;;;;;;3.33;0.98;;;2.20;97.20;;;6.47;77.84;102167.34;5011828;28;97480;-73
2021/01/18 07:15:43;;;;;;;5.78;2.85;;;2.20;97.10;;;6.48;77.74;102171.63;5011296;27;99210;-73
2021/01/18 07:18:13;;;;;;;1.73;1.63;;;2.20;97.20;;;6.49;77.36;102168.75;5014860;28;98168;-73
2021/01/18 07:21:04;;;;;;;0.45;0.45;;;2.20;97.20;;;6.57;77.23;102159.53;5017869;28;97484;-73
2021/01/18 07:24:00;;;;;;;2.85;1.95;;;2.30;97.20;;;6.60;76.96;102153.72;5010382;28;97071;-73
2021/01/18 07:26:54;;;;;;;2.50;1.17;;;2.30;97.20;;;6.64;77.08;102161.00;5010596;28;97882;-73
2021/01/18 07:29:34;;;;;;;1.20;0.93;;;2.30;97.20;;;6.68;77.65;102164.78;5008974;28;97935;-73
2021/01/18 07:32:11;;;;;;;5.63;2.28;;;2.30;97.20;;;6.65;78.33;102159.16;4996432;28;96978;-73
2021/01/18 07:34:39;;;;;;;9.75;2.05;;;2.30;97.20;;;6.82;77.11;102159.94;5005224;28;97151;-73
2021/01/18 07:37:26;;;;;;;4.18;2.63;;;2.40;97.20;;;6.89;76.58;102156.09;5009776;27;97826;-73
2021/01/18 07:40:14;;;;;;;4.03;3.13;;;2.40;97.20;;;7.00;77.09;102152.50;5015717;28;97882;-73
2021/01/18 07:42:54;;;;;;;1.75;1.63;;;2.40;97.20;;;6.95;76.80;102157.78;5024008;28;97649;-73
2021/01/18 07:45:24;;;;;;;2.35;1.52;;;2.50;97.30;;;6.99;77.30;102163.44;5015172;27;97259;-73
2021/01/18 07:48:07;;;;;;;3.95;2.53;;;2.60;97.30;;;7.09;77.55;102166.25;5018256;27;97869;-73
2021/01/18 07:50:41;;;;;;;4.82;3.67;;;2.60;97.30;;;7.20;76.47;102168.00;5010847;27;97922;-73
2021/01/18 07:53:31;;;;;;;2.33;2.10;;;2.70;97.30;;;7.21;77.46;102175.75;5014356;28;97215;-73
2021/01/18 07:56:05;;;;;;;1.88;1.77;;;2.70;97.30;;;7.26;77.17;102175.84;5017074;28;97228;-73
2021/01/18 07:58:32;;;;;;;18.88;2.42;;;2.70;97.30;;;7.31;77.58;102178.56;5016992;28;96960;-74
2021/01/18 08:01:09;;;;;;;4.07;3.67;;;2.80;97.30;;;7.33;77.61;102173.00;5010326;28;96779;-74
2021/01/18 08:03:53;;;;;;;9.45;2.78;;;2.80;97.30;;;7.40;77.53;102178.97;5021470;27;96734;-74
2021/01/18 08:06:21;;;;;;;15.77;2.20;;;2.90;97.30;;;7.43;77.18;102178.47;5015324;28;96880;-74
2021/01/18 08:08:57;;;;;;;3.78;3.22;;;2.90;97.30;;;7.46;76.58;102183.31;5016599;28;98150;-74
2021/01/18 08:11:25;;;;;;;10.68;2.00;;;2.90;97.20;;;7.49;77.58;102182.81;4997668;28;97776;-74
2021/01/18 08:13:59;;;;;;;3.20;1.95;;;3.00;97.20;;;7.56;77.61;102184.25;5012745;27;97327;-74
2021/01/18 08:16:41;;;;;;;4.70;3.38;;;3.00;97.20;;;7.64;77.15;102178.50;5014760;28;96751;-73
2021/01/18 08:19:26;;;;;;;20.02;2.95;;;3.10;97.20;;;7.67;77.13;102183.34;5004252;28;96969;-73
2021/01/18 08:22:06;;;;;;;7.43;3.40;;;3.20;97.20;;;7.78;76.82;102180.53;5012358;28;97908;-73
2021/01/18 08:24:54;;;;;;;2.17;1.98;;;3.20;97.20;;;7.86;76.57;102181.97;5010427;28;97274;-73
2021/01/18 08:27:47;;;;;;;2.70;1.30;;;3.20;97.20;;;7.89;76.79;102170.81;5013942;28;97266;-73
2021/01/18 08:30:39;;;;;;;1.42;1.33;;;3.30;97.30;;;7.95;77.56;102162.63;5012547;28;97854;-73
2021/01/18 08:33:17;;;;;;;2.65;2.40;;;3.30;97.20;;;8.05;77.06;102170.75;5015943;28;98108;-73
2021/01/18 08:35:50;;;;;;;4.50;2.25;;;3.40;97.20;;;8.08;76.78;102174.78;5012544;28;97275;-72
2021/01/18 08:38:30;;;;;;;22.48;3.75;;;3.50;97.20;;;8.09;76.96;102174.50;5006574;28;96838;-72
2021/01/18 08:41:08;;;;;;;9.10;4.95;;;3.60;97.20;;;8.14;77.10;102179.94;5030939;27;98032;-72
2021/01/18 08:43:54;;;;;;;12.43;3.15;;;3.60;97.20;;;8.21;76.85;102167.22;5016846;28;97089;-72
2021/01/18 08:46:40;;;;;;;4.07;2.75;;;3.70;97.20;;;8.27;76.55;102171.56;5011035;28;97682;-73
2021/01/18 08:49:31;;;;;;;4.05;2.53;;;3.70;97.20;;;8.28;77.08;102175.84;5010259;28;97054;-73
2021/01/18 08:52:15;;;;;;;8.85;3.75;;;3.80;97.20;;;8.39;77.24;102166.06;5011639;28;96925;-73
2021/01/18 08:54:42;;;;;;;20.08;2.58;;;3.80;97.20;;;8.36;77.31;102162.03;5011424;28;98324;-72
2021/01/18 08:57:22;;;;;;;6.60;2.97;;;3.90;97.20;;;8.47;77.05;102173.63;5015483;28;97051;-72
2021/01/18 09:00:09;;;;;;;3.97;3.00;;;3.90;97.20;;;8.66;76.74;102164.19;5019155;28;96888;-72
2021/01/18 09:02:40;;;;;;;8.68;3.80;;;4.00;97.20;;;8.73;76.47;102167.44;5022494;28;97838;-73
2021/01/18 09:05:16;;;;;;;9.30;3.10;;;4.10;97.20;;;8.74;76.69;102159.19;5017459;28;98382;-73
2021/01/18 09:07:46;;;;;;;4.45;2.75;;;4.10;97.10;;;8.79;76.98;102161.91;5015560;28;97204;-72
2021/01/18 09:10:20;;;;;;;11.77;6.25;;;4.20;97.10;;;8.85;76.51;102158.19;5026021;28;97352;-73
2021/01/18 09:12:51;;;;;;;1.80;1.48;;;4.30;97.10;;;8.84;76.60;102147.75;5012855;27;97376;-73
2021/01/18 09:15:28;;;;;;;7.28;4.05;;;4.30;97.00;;;8.80;77.24;102166.19;5017839;27;96822;-73
2021/01/18 09:17:56;;;;;;;19.63;4.13;;;4.40;97.00;;;8.94;76.85;102153.19;5017235;27;97037;-73
2021/01/18 09:20:29;;;;;;;10.30;3.72;;;4.40;97.00;;;9.01;76.48;102154.59;5021267;27;96975;-73
2021/01/18 09:23:06;;;;;;;8.88;4.03;;;4.40;97.00;;;9.00;76.83;102150.28;5004160;28;99846;-73
2021/01/18 09:26:15;;;;;;;3.92;2.58;;;4.50;97.00;;;9.03;76.98;102144.44;5014906;28;96719;-73
2021/01/18 09:28:55;;;;;;;2.95;2.58;;;4.50;97.00;;;9.07;76.97;102137.53;5018810;28;97200;-73
2021/01/18 09:31:24;;;;;;;6.63;3.67;;;4.50;97.00;;;9.12;76.49;102142.91;5012834;28;96869;-73
2021/01/18 09:34:11;;;;;;;9.02;3.47;;;4.60;96.90;;;9.19;76.10;102132.00;5011862;28;97928;-73
2021/01/18 09:36:41;;;;;;;2.90;2.63;;;4.60;96.90;;;9.17;76.68;102142.13;5017013;28;97705;-72
2021/01/18 09:39:20;;;;;;;30.92;5.53;;;4.70;96.90;;;9.18;76.30;102128.50;5019959;28;96728;-73
2021/01/18 09:42:09;;;;;;;4.63;3.00;;;4.70;96.90;;;9.17;76.99;102136.78;5014343;28;96840;-73
2021/01/18 09:44:38;;;;;;;2.22;1.75;;;4.70;96.90;;;9.19;77.08;102130.09;5018869;28;97935;-73
2021/01/18 09:47:07;;;;;;;5.40;3.42;;;4.70;96.90;;;9.21;76.84;102130.66;5021211;28;97195;-73
2021/01/18 09:49:41;;;;;;;6.10;3.20;;;4.80;96.90;;;9.22;76.75;102124.25;5014542;28;96686;-73
2021/01/18 09:52:39;;;;;;;3.80;3.15;;;4.80;96.90;;;9.30;76.97;102134.44;5013133;28;96982;-73
2021/01/18 09:55:19;;;;;;;5.28;3.08;;;4.80;96.90;;;9.33;76.97;102124.03;5012459;28;98043;-73
2021/01/18 09:58:10;;;;;;;2.97;2.67;;;4.90;96.90;;;9.46;77.06;102130.78;5009093;28;97637;-73
2021/01/18 10:00:41;;;;;;;3.70;1.52;;;4.90;96.90;;;9.52;76.72;102124.41;5014437;27;96831;-73
2021/01/18 10:03:27;;;;;;;4.28;3.40;;;5.00;96.90;;;9.60;76.33;102124.72;5015335;28;97184;-73
2021/01/18 10:06:22;;;;;;;3.55;2.83;;;5.00;96.90;;;9.72;76.32;102122.59;5015949;27;97829;-73
2021/01/18 10:08:54;;;;;;;4.90;2.53;;;5.10;96.80;;;9.76;76.48;102118.38;5016646;27;97772;-73
2021/01/18 10:11:40;;;;;;;5.65;2.15;;;5.20;96.80;;;9.85;76.13;102111.44;5023803;28;96773;-73
2021/01/18 10:14:20;;;;;;;3.38;3.08;;;5.20;96.70;;;9.77;76.37;102106.59;5017858;28;96829;-73
2021/01/18 10:17:00;;;;;;;7.65;2.92;;;5.30;96.70;;;9.71;76.96;102110.28;5015277;28;99030;-74
2021/01/18 10:19:37;;;;;;;12.10;3.38;;;5.30;96.70;;;9.74;76.71;102111.66;5016929;28;97708;-74
2021/01/18 10:22:19;;;;;;;3.85;3.10;;;5.30;96.60;;;9.77;76.74;102111.13;5015930;28;96775;-74
2021/01/18 10:24:57;;;;;;;3.42;2.75;;;5.30;96.60;;;9.82;76.66;102108.47;5011483;28;96878;-73
2021/01/18 10:27:28;;;;;;;8.38;2.90;;;5.30;96.60;;;9.87;76.68;102108.47;5012767;28;97845;-74
2021/01/18 10:30:14;;;;;;;5.05;3.92;;;5.40;96.90;;;9.88;76.34;102096.69;5010931;27;96778;-73
2021/01/18 10:32:45;;;;;;;20.42;3.38;;;5.40;96.60;;;9.88;76.35;102100.19;5013369;28;96659;-73
2021/01/18 10:35:32;;;;;;;3.97;2.22;;;5.40;96.60;;;9.83;76.59;102099.34;5008140;28;96842;-74
2021/01/18 10:38:17;;;;;;;5.95;2.10;;;5.40;96.60;;;9.86;76.79;102096.16;5024799;28;97600;-74
2021/01/18 10:41:03;;;;;;;12.70;4.85;;;5.40;96.60;;;9.99;76.37;102090.31;5012747;28;96729;-74
2021/01/18 10:43:52;;;;;;;5.15;3.67;;;5.50;96.60;;;10.16;76.51;102088.22;5005849;28;96736;-74
2021/01/18 10:46:20;;;;;;;5.38;3.35;;;5.50;96.60;;;10.30;75.91;102083.97;5014903;28;96812;-74
2021/01/18 10:48:56;;;;;;;4.72;3.42;;;5.60;96.50;;;10.62;75.34;102073.78;5004283;28;100314;-74
2021/01/18 10:51:39;;;;;;;1.52;1.42;;;5.70;96.50;;;10.66;75.39;102066.81;5021691;28;97859;-74
2021/01/18 10:54:06;;;;;;;3.08;2.47;;;5.90;96.40;;;10.67;75.41;102063.06;5019422;27;97218;-74
2021/01/18 10:56:58;;;;;;;3.10;2.55;;;5.90;96.30;;;10.66;75.52;102062.28;5013956;28;96870;-73
2021/01/18 10:59:37;;;;;;;22.67;4.40;;;6.00;96.20;;;10.67;75.02;102061.19;5016498;27;98068;-73
2021/01/18 11:02:14;;;;;;;4.60;3.15;;;6.00;96.20;;;10.64;75.30;102064.38;5014043;28;97756;-74
2021/01/18 11:04:51;;;;;;;8.50;3.08;;;6.00;96.10;;;10.60;75.64;102060.63;5015067;28;96827;-74